Time;durP1;ratioP1;P1;durP2;ratioP2;P2;SDS_P1;SDS_P2;PMS_P1;PMS_P2;Temp;Humidity;BMP_temperature;BMP_pressure;BME280_temperature;BME280_humidity;BME280_pressure;Samples;Min_cycle;Max_cycle;Signal;HPM_P1;HPM_P2
2021/08/16 00:01:34;;;;;;;6.13;2.47;;;23.20;57.60;;;;;;5067227;28;20021;-66
2021/08/16 00:03:59;;;;;;;6.35;2.80;;;23.20;57.60;;;;;;5072341;28;20080;-63
2021/08/16 00:06:25;;;;;;;6.32;2.63;;;23.20;57.60;;;;;;5076867;28;20009;-63
2021/08/16 00:08:50;;;;;;;7.65;2.60;;;23.20;57.60;;;;;;5070035;28;20488;-63
2021/08/16 00:11:16;;;;;;;5.97;2.42;;;23.20;57.50;;;;;;5064222;28;20036;-62
2021/08/16 00:13:41;;;;;;;7.65;2.97;;;23.10;57.70;;;;;;5059361;28;20078;-63
2021/08/16 00:16:08;;;;;;;7.82;2.58;;;23.20;57.70;;;;;;5055096;28;20032;-63
2021/08/16 00:18:34;;;;;;;6.13;2.70;;;23.20;57.80;;;;;;5055231;28;20029;-62
2021/08/16 00:21:00;;;;;;;7.00;2.90;;;23.20;57.70;;;;;;5055315;28;20473;-63
2021/08/16 00:23:26;;;;;;;6.68;2.22;;;23.10;57.70;;;;;;5055597;28;20083;-63
2021/08/16 00:25:52;;;;;;;6.50;2.20;;;23.10;57.80;;;;;;5054922;28;20024;-63
2021/08/16 00:28:18;;;;;;;4.30;2.28;;;23.10;57.80;;;;;;5054936;28;20100;-63
2021/08/16 00:30:44;;;;;;;6.20;2.35;;;23.10;57.90;;;;;;5054751;28;20124;-62
2021/08/16 00:33:10;;;;;;;6.18;1.88;;;23.00;58.00;;;;;;5055115;28;20104;-63
2021/08/16 00:35:36;;;;;;;7.85;2.58;;;23.00;58.00;;;;;;5054611;28;20482;-62
2021/08/16 00:38:02;;;;;;;6.63;2.38;;;23.00;58.10;;;;;;5054817;28;20048;-63
2021/08/16 00:40:27;;;;;;;5.25;1.90;;;23.00;58.10;;;;;;5054719;28;20371;-63
2021/08/16 00:42:53;;;;;;;6.32;2.33;;;23.00;58.10;;;;;;5054685;28;20032;-61
2021/08/16 00:45:18;;;;;;;5.07;2.28;;;23.00;58.10;;;;;;5055848;28;20033;-63
2021/08/16 00:47:44;;;;;;;5.25;2.33;;;23.00;58.10;;;;;;5068707;28;20013;-63
2021/08/16 00:50:12;;;;;;;6.25;2.08;;;22.90;58.30;;;;;;5056442;28;20037;-63
2021/08/16 00:52:41;;;;;;;4.68;2.03;;;22.90;58.20;;;;;;5055146;28;20122;-63
2021/08/16 00:55:09;;;;;;;6.57;2.22;;;22.90;58.10;;;;;;5054558;28;20118;-63
2021/08/16 00:57:36;;;;;;;7.35;3.95;;;22.90;58.10;;;;;;5054508;28;20499;-62
2021/08/16 01:00:04;;;;;;;6.32;2.42;;;22.90;58.00;;;;;;5054709;28;20564;-63
2021/08/16 01:02:33;;;;;;;7.05;2.63;;;22.90;58.10;;;;;;5054354;28;20036;-62
2021/08/16 01:05:04;;;;;;;6.82;2.85;;;22.90;58.10;;;;;;5054243;28;20155;-63
2021/08/16 01:07:34;;;;;;;6.65;2.47;;;22.90;58.10;;;;;;5054467;28;20104;-63
2021/08/16 01:10:01;;;;;;;5.22;2.10;;;22.90;58.00;;;;;;5054271;28;20484;-63
2021/08/16 01:12:31;;;;;;;9.48;2.40;;;22.80;57.90;;;;;;5054786;28;20033;-62
2021/08/16 01:14:57;;;;;;;5.75;2.40;;;22.90;58.00;;;;;;5054180;28;20443;-63
2021/08/16 01:17:23;;;;;;;6.28;2.40;;;22.70;58.00;;;;;;5054286;28;20051;-62
2021/08/16 01:19:49;;;;;;;6.07;2.08;;;22.70;58.00;;;;;;5054148;28;20052;-63
2021/08/16 01:22:15;;;;;;;8.02;2.08;;;22.70;57.90;;;;;;5054206;28;20025;-63
2021/08/16 01:24:42;;;;;;;7.13;2.13;;;22.70;57.90;;;;;;5053942;28;20469;-62
2021/08/16 01:27:11;;;;;;;5.43;1.88;;;22.80;57.70;;;;;;5054172;28;20024;-63
2021/08/16 01:29:38;;;;;;;7.25;2.40;;;22.70;57.60;;;;;;5053869;28;20021;-62
2021/08/16 01:32:04;;;;;;;5.72;1.90;;;22.70;57.80;;;;;;5053915;28;20532;-63
2021/08/16 01:34:30;;;;;;;7.07;2.00;;;22.70;57.70;;;;;;5053644;28;20028;-63
2021/08/16 01:36:57;;;;;;;7.25;2.20;;;22.60;57.70;;;;;;5053004;28;20051;-62
2021/08/16 01:39:23;;;;;;;5.63;2.10;;;22.60;57.70;;;;;;5053868;28;20025;-62
2021/08/16 01:41:48;;;;;;;5.78;2.03;;;22.60;57.50;;;;;;5053792;28;20381;-63
2021/08/16 01:44:16;;;;;;;7.53;2.20;;;22.50;57.50;;;;;;5053846;28;20025;-62
2021/08/16 01:46:42;;;;;;;5.05;2.33;;;22.60;57.40;;;;;;5053575;28;20031;-63
2021/08/16 01:49:08;;;;;;;7.78;2.10;;;22.50;57.40;;;;;;5053547;28;20021;-62
2021/08/16 01:51:35;;;;;;;5.53;2.00;;;22.50;57.50;;;;;;5053585;28;20491;-62
2021/08/16 01:54:00;;;;;;;6.55;1.95;;;22.50;57.40;;;;;;5052011;28;20148;-62
2021/08/16 01:56:26;;;;;;;5.47;2.10;;;22.50;57.40;;;;;;5053382;28;20056;-63
2021/08/16 01:58:51;;;;;;;7.93;2.55;;;22.50;57.40;;;;;;5053397;28;20029;-63
2021/08/16 02:01:17;;;;;;;7.35;2.03;;;22.50;57.30;;;;;;5053274;28;20104;-62
2021/08/16 02:03:42;;;;;;;4.97;1.92;;;22.40;57.20;;;;;;5053401;28;20025;-62
2021/08/16 02:06:08;;;;;;;6.18;2.10;;;22.40;57.20;;;;;;5053064;28;20025;-62
2021/08/16 02:08:34;;;;;;;9.90;2.58;;;22.50;57.20;;;;;;5053408;28;20385;-62
2021/08/16 02:10:59;;;;;;;7.50;2.33;;;22.30;57.00;;;;;;5053072;28;20033;-62
2021/08/16 02:13:25;;;;;;;7.38;2.42;;;22.40;57.10;;;;;;5053330;28;20024;-62
2021/08/16 02:15:50;;;;;;;6.25;2.28;;;22.40;56.90;;;;;;5053088;28;20234;-63
2021/08/16 02:18:16;;;;;;;5.45;2.00;;;22.30;57.00;;;;;;5052995;28;20024;-62
2021/08/16 02:20:41;;;;;;;7.10;2.05;;;22.40;56.80;;;;;;5052996;28;20099;-63
2021/08/16 02:23:07;;;;;;;5.65;1.80;;;22.40;56.70;;;;;;5052864;28;20095;-63
2021/08/16 02:25:32;;;;;;;9.00;2.08;;;22.40;56.70;;;;;;5053271;28;20021;-62
2021/08/16 02:27:58;;;;;;;7.38;2.28;;;22.30;56.70;;;;;;5052829;28;20025;-62
2021/08/16 02:30:24;;;;;;;7.95;2.05;;;22.30;56.70;;;;;;5052994;28;20037;-63
2021/08/16 02:32:49;;;;;;;6.82;1.92;;;22.40;56.50;;;;;;5052889;28;20365;-63
2021/08/16 02:35:15;;;;;;;10.38;2.60;;;22.40;56.40;;;;;;5052968;28;20457;-63
2021/08/16 02:37:41;;;;;;;6.75;2.40;;;22.20;56.50;;;;;;5052819;28;20029;-63
2021/08/16 02:40:09;;;;;;;7.65;2.25;;;22.20;56.70;;;;;;5052990;28;20380;-62
2021/08/16 02:42:34;;;;;;;6.88;2.15;;;22.30;56.40;;;;;;5052854;28;20071;-63
2021/08/16 02:45:00;;;;;;;7.20;2.28;;;22.30;56.50;;;;;;5052916;28;20411;-63
2021/08/16 02:47:26;;;;;;;6.65;2.53;;;22.30;56.30;;;;;;5052603;28;20025;-63
2021/08/16 02:49:52;;;;;;;10.50;2.50;;;22.20;56.40;;;;;;5055677;28;20025;-63
2021/08/16 02:52:17;;;;;;;12.07;2.88;;;22.20;56.50;;;;;;5062380;28;20029;-63
2021/08/16 02:54:44;;;;;;;5.68;2.10;;;22.20;56.40;;;;;;5056936;28;20017;-63
2021/08/16 02:57:12;;;;;;;6.22;2.25;;;22.20;56.30;;;;;;5056556;28;20500;-63
2021/08/16 02:59:41;;;;;;;10.70;2.85;;;22.20;56.40;;;;;;5057029;28;20025;-63
2021/08/16 03:02:07;;;;;;;7.15;2.20;;;22.30;56.00;;;;;;5058589;28;20025;-63
2021/08/16 03:04:34;;;;;;;6.75;2.03;;;22.30;56.00;;;;;;5065652;28;20033;-63
2021/08/16 03:07:00;;;;;;;8.30;2.33;;;22.20;56.20;;;;;;5063525;28;20369;-63
2021/08/16 03:09:26;;;;;;;8.25;2.53;;;22.10;56.30;;;;;;5057574;28;20131;-63
2021/08/16 03:11:52;;;;;;;8.02;2.50;;;22.10;56.40;;;;;;5056964;28;20489;-62
2021/08/16 03:14:17;;;;;;;6.03;2.00;;;22.20;56.30;;;;;;5056393;28;20427;-63
2021/08/16 03:16:43;;;;;;;8.38;2.50;;;22.20;56.20;;;;;;5056488;28;20036;-63
2021/08/16 03:19:08;;;;;;;8.60;2.72;;;22.20;56.20;;;;;;5056629;28;20021;-62
2021/08/16 03:21:34;;;;;;;8.50;2.65;;;22.20;56.00;;;;;;5056370;28;20025;-63
2021/08/16 03:23:59;;;;;;;7.80;2.22;;;22.20;56.10;;;;;;5056328;28;20021;-63
2021/08/16 03:26:25;;;;;;;7.32;2.35;;;22.10;56.10;;;;;;5056199;28;20025;-63
2021/08/16 03:28:50;;;;;;;7.72;2.35;;;22.20;56.20;;;;;;5056268;28;20159;-63
2021/08/16 03:31:16;;;;;;;9.73;2.55;;;22.10;56.20;;;;;;5056252;28;20072;-62
2021/08/16 03:33:41;;;;;;;9.40;2.50;;;22.20;55.90;;;;;;5056514;28;20408;-63
2021/08/16 03:36:07;;;;;;;8.68;2.10;;;22.10;56.20;;;;;;5058591;28;20068;-63
2021/08/16 03:38:32;;;;;;;7.97;2.40;;;22.10;55.90;;;;;;5055932;28;20435;-63
2021/08/16 03:40:58;;;;;;;8.57;2.47;;;22.10;56.20;;;;;;5056132;28;20025;-63
2021/08/16 03:43:23;;;;;;;6.50;2.25;;;22.10;56.30;;;;;;5054448;28;20047;-63
2021/08/16 03:45:49;;;;;;;7.13;2.00;;;22.00;56.30;;;;;;5055748;28;20017;-63
2021/08/16 03:48:15;;;;;;;9.20;2.55;;;22.00;56.30;;;;;;5056012;28;20025;-63
2021/08/16 03:50:40;;;;;;;7.47;2.42;;;22.00;56.40;;;;;;5055504;28;20098;-63
2021/08/16 03:53:06;;;;;;;8.38;2.45;;;22.00;56.30;;;;;;5055763;28;20517;-63
2021/08/16 03:55:32;;;;;;;10.38;2.58;;;22.10;56.30;;;;;;5055507;28;20485;-63
2021/08/16 03:57:58;;;;;;;7.00;2.15;;;22.00;56.30;;;;;;5055430;28;20053;-63
2021/08/16 04:00:23;;;;;;;10.63;2.55;;;22.10;56.20;;;;;;5054890;28;20063;-63
2021/08/16 04:02:49;;;;;;;8.45;2.50;;;22.00;56.30;;;;;;5055460;28;20025;-62
2021/08/16 04:05:14;;;;;;;9.00;2.25;;;22.10;56.10;;;;;;5055335;28;20473;-63
2021/08/16 04:07:43;;;;;;;9.95;2.58;;;22.10;56.20;;;;;;5055299;28;20354;-63
2021/08/16 04:10:11;;;;;;;8.10;2.33;;;22.00;56.40;;;;;;5055227;28;20036;-63
2021/08/16 04:12:36;;;;;;;10.05;2.42;;;22.00;56.60;;;;;;5055357;28;20040;-62
2021/08/16 04:15:04;;;;;;;9.57;2.20;;;22.00;56.50;;;;;;5055302;28;20025;-63
2021/08/16 04:17:30;;;;;;;10.73;3.15;;;22.00;56.50;;;;;;5054961;28;20029;-63
2021/08/16 04:19:55;;;;;;;11.30;3.42;;;22.00;56.40;;;;;;5055110;28;20100;-63
2021/08/16 04:22:21;;;;;;;8.65;2.50;;;22.00;56.50;;;;;;5055140;28;20473;-63
2021/08/16 04:24:46;;;;;;;8.73;2.38;;;22.00;56.40;;;;;;5055269;28;20032;-63
2021/08/16 04:27:12;;;;;;;13.73;2.55;;;22.00;56.40;;;;;;5055062;28;20029;-63
2021/08/16 04:29:37;;;;;;;12.38;3.15;;;22.00;56.60;;;;;;5055081;28;20112;-63
2021/08/16 04:32:03;;;;;;;9.00;2.85;;;22.00;56.40;;;;;;5054927;28;20028;-62
2021/08/16 04:34:28;;;;;;;9.93;3.15;;;22.00;56.50;;;;;;5055011;28;20476;-61
2021/08/16 04:36:54;;;;;;;7.95;2.25;;;22.00;56.80;;;;;;5054638;28;20095;-62
2021/08/16 04:39:19;;;;;;;9.43;2.33;;;21.90;56.80;;;;;;5055196;28;20079;-62
2021/08/16 04:41:45;;;;;;;9.48;2.75;;;21.90;56.90;;;;;;5054974;28;20085;-63
2021/08/16 04:44:10;;;;;;;10.73;2.53;;;21.90;56.80;;;;;;5054826;28;20021;-63
2021/08/16 04:46:36;;;;;;;9.65;3.05;;;21.90;56.80;;;;;;5054798;28;20029;-62
2021/08/16 04:49:01;;;;;;;9.80;2.92;;;21.90;56.70;;;;;;5054439;28;20025;-63
2021/08/16 04:51:27;;;;;;;8.80;2.80;;;21.90;56.80;;;;;;5054625;28;20041;-62
2021/08/16 04:53:52;;;;;;;8.63;2.75;;;21.80;57.00;;;;;;5054565;28;20021;-63
2021/08/16 04:56:18;;;;;;;10.50;2.75;;;21.80;57.00;;;;;;5055223;28;20484;-63
2021/08/16 04:58:44;;;;;;;8.23;2.63;;;21.80;57.10;;;;;;5054425;28;20500;-63
2021/08/16 05:01:09;;;;;;;10.85;2.83;;;21.80;57.00;;;;;;5054380;28;20073;-63
2021/08/16 05:03:35;;;;;;;11.52;3.00;;;21.80;57.00;;;;;;5054183;28;20104;-63
2021/08/16 05:06:06;;;;;;;10.48;2.75;;;21.90;57.10;;;;;;5054255;28;20021;-63
2021/08/16 05:08:32;;;;;;;8.45;2.70;;;21.80;57.00;;;;;;5055855;28;20028;-63
2021/08/16 05:10:58;;;;;;;8.90;3.17;;;21.80;57.20;;;;;;5054911;28;20362;-63
2021/08/16 05:13:24;;;;;;;9.88;2.88;;;21.90;57.00;;;;;;5053241;28;20044;-63
2021/08/16 05:15:49;;;;;;;10.48;3.00;;;21.80;57.20;;;;;;5054313;28;20063;-63
2021/08/16 05:18:15;;;;;;;8.43;3.30;;;21.80;57.30;;;;;;5057145;28;20042;-64
2021/08/16 05:20:40;;;;;;;9.27;2.97;;;21.90;57.00;;;;;;5059503;28;20025;-62
2021/08/16 05:23:06;;;;;;;10.13;2.70;;;21.80;57.20;;;;;;5054252;28;20084;-63
2021/08/16 05:25:32;;;;;;;9.85;2.70;;;21.80;57.20;;;;;;5053984;28;20480;-63
2021/08/16 05:27:57;;;;;;;12.07;3.17;;;21.80;57.10;;;;;;5053751;28;20083;-63
2021/08/16 05:30:23;;;;;;;9.50;2.95;;;21.90;56.90;;;;;;5053687;28;20041;-62
2021/08/16 05:32:49;;;;;;;8.25;2.72;;;21.90;57.00;;;;;;5053778;28;20108;-63
2021/08/16 05:35:15;;;;;;;10.32;3.92;;;21.90;57.10;;;;;;5053420;28;20044;-62
2021/08/16 05:37:41;;;;;;;12.95;2.58;;;21.80;57.20;;;;;;5053641;28;20025;-63
2021/08/16 05:40:07;;;;;;;9.02;2.90;;;21.70;57.50;;;;;;5053595;28;20459;-63
2021/08/16 05:42:33;;;;;;;10.15;3.17;;;21.80;57.40;;;;;;5053550;28;20060;-63
2021/08/16 05:45:02;;;;;;;11.98;3.15;;;21.70;57.60;;;;;;5053508;28;20029;-63
2021/08/16 05:47:27;;;;;;;10.25;2.67;;;21.80;57.50;;;;;;5053413;28;20035;-63
2021/08/16 05:49:53;;;;;;;9.98;2.75;;;21.80;57.50;;;;;;5052090;28;20480;-63
2021/08/16 05:52:19;;;;;;;10.52;2.80;;;21.70;57.60;;;;;;5053299;28;20469;-63
2021/08/16 05:54:45;;;;;;;10.35;2.60;;;21.80;57.50;;;;;;5053441;28;20033;-62
2021/08/16 05:57:10;;;;;;;7.63;3.00;;;21.80;57.60;;;;;;5053198;28;20032;-63
2021/08/16 05:59:36;;;;;;;10.48;3.03;;;21.80;57.50;;;;;;5053223;28;20075;-62
2021/08/16 06:02:01;;;;;;;11.20;2.63;;;21.70;57.80;;;;;;5053877;28;20070;-63
2021/08/16 06:04:27;;;;;;;11.13;3.05;;;21.70;57.90;;;;;;5061068;28;20037;-63
2021/08/16 06:06:52;;;;;;;11.27;2.75;;;21.70;57.90;;;;;;5060728;28;20449;-63
2021/08/16 06:09:18;;;;;;;10.50;2.50;;;21.70;57.80;;;;;;5053337;28;20061;-62
2021/08/16 06:11:43;;;;;;;8.38;2.88;;;21.70;58.00;;;;;;5052830;28;20466;-63
2021/08/16 06:14:09;;;;;;;8.70;2.95;;;21.70;58.00;;;;;;5042663;28;20029;-63
2021/08/16 06:16:34;;;;;;;9.02;3.00;;;21.70;57.90;;;;;;5038150;28;20037;-63
2021/08/16 06:19:00;;;;;;;7.68;2.63;;;21.80;57.90;;;;;;5045195;28;20108;-63
2021/08/16 06:21:25;;;;;;;7.65;2.75;;;21.70;57.90;;;;;;5048217;28;20036;-63
2021/08/16 06:23:51;;;;;;;11.65;2.90;;;21.80;58.00;;;;;;5051867;28;20021;-63
2021/08/16 06:26:18;;;;;;;10.85;3.42;;;21.70;58.00;;;;;;5052256;28;20029;-63
2021/08/16 06:28:43;;;;;;;11.30;3.65;;;21.70;58.20;;;;;;5046902;28;20060;-62
2021/08/16 06:31:09;;;;;;;6.88;2.70;;;21.70;58.30;;;;;;5050586;28;20057;-63
2021/08/16 06:33:37;;;;;;;10.18;2.72;;;21.70;58.30;;;;;;5046792;28;20024;-63
2021/08/16 06:36:05;;;;;;;9.40;3.30;;;21.60;58.40;;;;;;5044141;28;20278;-62
2021/08/16 06:38:30;;;;;;;7.75;2.85;;;21.50;58.70;;;;;;5035020;28;20034;-63
2021/08/16 06:40:57;;;;;;;10.27;3.05;;;21.70;58.50;;;;;;5051834;28;20090;-63
2021/08/16 06:43:25;;;;;;;8.55;2.95;;;21.70;58.60;;;;;;5037409;28;20021;-63
2021/08/16 06:45:51;;;;;;;7.72;2.55;;;21.70;58.60;;;;;;5050903;28;20029;-62
2021/08/16 06:48:17;;;;;;;14.48;3.22;;;21.70;58.60;;;;;;5051710;28;20017;-62
2021/08/16 06:50:42;;;;;;;8.80;3.42;;;21.60;58.70;;;;;;5056347;28;20446;-63
2021/08/16 06:53:11;;;;;;;9.70;3.63;;;21.60;58.80;;;;;;5052073;28;20025;-63
2021/08/16 06:55:37;;;;;;;9.70;2.40;;;21.70;58.70;;;;;;5052182;28;20064;-63
2021/08/16 06:58:02;;;;;;;10.50;2.90;;;21.70;58.60;;;;;;5051246;28;20056;-62
2021/08/16 07:00:28;;;;;;;13.45;3.55;;;21.70;58.70;;;;;;5047846;28;20029;-63
2021/08/16 07:02:53;;;;;;;10.63;3.20;;;21.70;58.60;;;;;;5050242;28;20029;-63
2021/08/16 07:05:19;;;;;;;10.10;3.08;;;21.70;58.60;;;;;;5051358;28;20037;-63
2021/08/16 07:07:47;;;;;;;9.63;2.47;;;21.80;58.60;;;;;;5062657;28;20025;-63
2021/08/16 07:10:12;;;;;;;9.05;2.60;;;21.80;58.50;;;;;;5039762;28;20029;-63
2021/08/16 07:12:38;;;;;;;10.65;2.58;;;21.90;58.50;;;;;;5050147;28;20094;-62
2021/08/16 07:15:03;;;;;;;11.23;3.38;;;21.90;58.40;;;;;;5044066;28;20104;-63
2021/08/16 07:17:29;;;;;;;11.15;2.92;;;21.80;58.60;;;;;;5043848;28;20056;-63
2021/08/16 07:19:54;;;;;;;9.05;2.38;;;21.80;58.70;;;;;;5051632;28;20040;-62
2021/08/16 07:22:20;;;;;;;13.43;3.22;;;21.80;58.60;;;;;;5051654;28;20139;-63
2021/08/16 07:24:45;;;;;;;12.93;3.08;;;21.80;58.60;;;;;;5051832;28;20029;-62
2021/08/16 07:27:11;;;;;;;9.02;2.42;;;21.90;58.40;;;;;;5046914;28;20033;-62
2021/08/16 07:29:37;;;;;;;10.00;2.95;;;21.90;58.40;;;;;;5033638;28;20724;-63
2021/08/16 07:32:03;;;;;;;11.90;2.60;;;21.90;58.60;;;;;;5047933;28;20021;-63
2021/08/16 07:34:28;;;;;;;10.23;2.75;;;21.90;58.50;;;;;;5051260;28;20029;-63
2021/08/16 07:36:54;;;;;;;9.40;2.15;;;21.90;58.50;;;;;;5054258;28;20056;-63
2021/08/16 07:39:21;;;;;;;7.93;2.55;;;21.90;58.50;;;;;;5055062;28;20032;-63
2021/08/16 07:41:46;;;;;;;10.20;3.15;;;22.00;58.30;;;;;;5055365;28;20037;-63
2021/08/16 07:44:14;;;;;;;9.82;2.55;;;22.00;58.40;;;;;;5051665;28;20029;-63
2021/08/16 07:46:40;;;;;;;7.95;2.63;;;22.00;58.50;;;;;;5037985;28;20033;-66
2021/08/16 07:49:05;;;;;;;6.20;2.38;;;22.00;58.50;;;;;;5039298;28;20124;-63
2021/08/16 07:51:31;;;;;;;7.90;2.10;;;22.00;58.50;;;;;;5047752;28;20056;-64
2021/08/16 07:53:56;;;;;;;10.25;2.63;;;22.00;58.50;;;;;;5040075;28;20064;-64
2021/08/16 07:56:22;;;;;;;6.97;2.35;;;22.00;58.50;;;;;;5046606;28;20056;-64
2021/08/16 07:58:47;;;;;;;7.38;2.13;;;22.00;58.40;;;;;;5045098;28;20063;-65
2021/08/16 08:01:13;;;;;;;7.80;2.40;;;22.00;58.40;;;;;;5040354;28;20086;-68
2021/08/16 08:03:38;;;;;;;10.52;2.40;;;22.00;58.40;;;;;;5053493;28;20033;-68
2021/08/16 08:06:04;;;;;;;11.43;3.05;;;22.00;58.60;;;;;;5056294;28;20025;-66
2021/08/16 08:08:41;;;;;;;10.32;2.40;;;22.00;58.50;;;;;;5057759;28;20025;-67
2021/08/16 08:11:07;;;;;;;7.18;2.00;;;22.00;58.70;;;;;;5054770;28;20037;-70
2021/08/16 08:13:32;;;;;;;9.98;2.40;;;22.00;58.70;;;;;;5061798;28;20529;-69
2021/08/16 08:15:58;;;;;;;7.80;2.35;;;22.00;58.60;;;;;;5063412;28;20051;-66
2021/08/16 08:18:23;;;;;;;10.57;2.70;;;22.00;58.70;;;;;;5050880;28;20061;-70
2021/08/16 08:20:49;;;;;;;10.35;2.95;;;22.10;58.50;;;;;;5045814;28;20388;-68
2021/08/16 08:23:14;;;;;;;16.38;2.53;;;22.10;58.40;;;;;;5037279;28;20625;-69
2021/08/16 08:25:40;;;;;;;12.02;1.98;;;22.10;58.50;;;;;;5048509;28;20078;-68
2021/08/16 08:28:15;;;;;;;8.65;2.53;;;22.10;58.50;;;;;;5047635;28;20461;-69
2021/08/16 08:30:41;;;;;;;8.40;2.20;;;22.10;58.40;;;;;;5052109;28;20028;-70
2021/08/16 08:33:07;;;;;;;9.52;2.15;;;22.10;58.40;;;;;;5031640;28;20033;-70
2021/08/16 08:35:32;;;;;;;9.43;2.03;;;22.10;58.50;;;;;;5049672;28;20403;-68
2021/08/16 08:37:58;;;;;;;8.13;2.03;;;22.20;58.50;;;;;;5047850;28;20029;-67
2021/08/16 08:40:24;;;;;;;10.23;2.67;;;22.20;58.20;;;;;;5052111;28;20039;-68
2021/08/16 08:42:53;;;;;;;8.70;2.17;;;22.20;58.50;;;;;;5029127;28;20021;-67
2021/08/16 08:45:20;;;;;;;9.18;2.47;;;22.10;58.80;;;;;;5039421;28;21669;-67
2021/08/16 08:47:47;;;;;;;8.10;2.00;;;22.20;58.50;;;;;;5048854;28;20024;-68
2021/08/16 08:50:15;;;;;;;11.88;3.17;;;22.20;58.60;;;;;;5041537;28;20040;-70
2021/08/16 08:52:41;;;;;;;7.68;2.60;;;22.20;58.80;;;;;;5030780;28;20031;-67
2021/08/16 08:55:07;;;;;;;7.47;2.15;;;22.20;58.80;;;;;;5047446;28;20028;-68
2021/08/16 08:57:36;;;;;;;6.95;2.15;;;22.20;58.60;;;;;;5048207;28;20476;-69
2021/08/16 09:00:02;;;;;;;9.10;2.47;;;22.10;58.80;;;;;;5050335;28;20021;-70
2021/08/16 09:02:27;;;;;;;10.00;2.80;;;22.10;58.70;;;;;;5035666;28;20163;-70
2021/08/16 09:04:54;;;;;;;9.23;2.13;;;22.10;58.80;;;;;;5043807;28;20058;-67
2021/08/16 09:07:33;;;;;;;9.52;2.30;;;22.20;58.80;;;;;;5050743;28;20048;-70
2021/08/16 09:10:00;;;;;;;7.35;2.17;;;22.10;58.90;;;;;;5049721;28;20036;-68
2021/08/16 09:12:33;;;;;;;8.98;2.38;;;22.10;58.90;;;;;;5035283;28;20025;-69
2021/08/16 09:15:00;;;;;;;10.95;2.45;;;22.10;59.10;;;;;;5036917;28;20036;-69
2021/08/16 09:17:30;;;;;;;7.93;2.20;;;22.10;59.10;;;;;;5041210;28;20033;-69
2021/08/16 09:19:57;;;;;;;8.48;2.63;;;22.10;59.10;;;;;;5052064;28;20135;-69
2021/08/16 09:22:26;;;;;;;7.10;2.28;;;22.10;59.30;;;;;;5026440;28;20033;-69
2021/08/16 09:25:08;;;;;;;11.75;2.42;;;22.00;59.50;;;;;;5042291;28;20388;-71
2021/08/16 09:27:46;;;;;;;10.40;2.08;;;22.00;59.50;;;;;;5043952;28;20025;-69
2021/08/16 09:30:14;;;;;;;9.18;2.58;;;22.10;59.70;;;;;;5048839;28;20032;-69
2021/08/16 09:32:40;;;;;;;6.60;2.10;;;22.10;59.90;;;;;;5040307;28;20074;-70
2021/08/16 09:35:12;;;;;;;9.43;2.35;;;22.10;59.80;;;;;;5039546;28;20392;-68
2021/08/16 09:37:38;;;;;;;8.90;2.40;;;22.10;60.10;;;;;;5048292;28;20029;-69
2021/08/16 09:40:04;;;;;;;6.53;2.15;;;22.10;60.10;;;;;;5047099;28;20056;-69
2021/08/16 09:42:50;;;;;;;8.27;2.65;;;22.10;60.30;;;;;;5040243;28;20472;-70
2021/08/16 09:45:31;;;;;;;9.65;1.90;;;22.10;60.60;;;;;;5044305;28;20025;-70
2021/08/16 09:47:59;;;;;;;7.78;2.22;;;22.10;60.70;;;;;;5058251;28;20021;-69
2021/08/16 09:50:49;;;;;;;7.68;2.33;;;22.10;60.70;;;;;;5049527;28;20488;-69
2021/08/16 09:53:16;;;;;;;5.35;1.95;;;22.10;61.00;;;;;;5034039;28;20497;-68
2021/08/16 09:55:44;;;;;;;9.40;2.55;;;22.00;61.10;;;;;;5051844;28;20058;-66
2021/08/16 09:58:14;;;;;;;9.05;3.08;;;22.10;60.80;;;;;;5043457;28;20074;-67
2021/08/16 10:00:41;;;;;;;9.90;2.53;;;22.10;61.30;;;;;;5047307;28;20136;-67
2021/08/16 10:03:08;;;;;;;7.82;2.38;;;22.10;61.10;;;;;;5033399;28;20571;-66
2021/08/16 10:05:41;;;;;;;8.40;2.72;;;22.10;61.30;;;;;;5037630;28;20029;-67
2021/08/16 10:08:09;;;;;;;9.38;2.53;;;22.10;61.70;;;;;;5038925;28;20044;-69
2021/08/16 10:10:36;;;;;;;8.27;2.47;;;22.10;61.80;;;;;;5045023;28;20048;-69
2021/08/16 10:13:03;;;;;;;8.50;2.30;;;22.10;61.80;;;;;;5024149;28;20412;-71
2021/08/16 10:15:34;;;;;;;6.90;2.38;;;22.20;61.50;;;;;;5036687;28;20048;-71
2021/08/16 10:18:00;;;;;;;11.57;2.53;;;22.10;61.90;;;;;;5042125;28;20079;-70
2021/08/16 10:20:28;;;;;;;5.68;1.77;;;22.10;62.20;;;;;;5038885;28;20025;-70
2021/08/16 10:22:54;;;;;;;6.50;2.05;;;22.10;62.50;;;;;;5023633;28;20029;-71
2021/08/16 10:25:20;;;;;;;9.38;2.83;;;22.20;62.20;;;;;;5040958;28;20033;-67
2021/08/16 10:27:46;;;;;;;7.53;2.20;;;22.10;62.50;;;;;;5048599;28;20028;-67
2021/08/16 10:30:14;;;;;;;5.30;2.10;;;22.00;62.70;;;;;;5042663;28;20112;-74
2021/08/16 10:32:41;;;;;;;8.48;1.80;;;22.00;62.70;;;;;;5037326;28;20025;-70
2021/08/16 10:35:14;;;;;;;7.72;1.85;;;22.10;62.60;;;;;;5034733;28;20065;-67
2021/08/16 10:37:42;;;;;;;5.85;1.92;;;22.10;62.60;;;;;;5045950;28;20496;-70
2021/08/16 10:40:26;;;;;;;7.70;2.03;;;22.00;62.80;;;;;;5041049;28;20037;-68
2021/08/16 10:42:55;;;;;;;6.47;1.88;;;22.10;62.70;;;;;;5027437;28;20032;-69
2021/08/16 10:45:25;;;;;;;5.50;2.20;;;22.10;62.50;;;;;;5050285;28;20021;-69
2021/08/16 10:48:08;;;;;;;7.65;2.03;;;22.20;62.10;;;;;;5047966;28;20036;-71
2021/08/16 10:50:35;;;;;;;7.28;1.98;;;22.20;61.90;;;;;;5042787;28;20194;-73
2021/08/16 10:53:06;;;;;;;4.50;1.67;;;22.10;62.00;;;;;;5034519;28;20055;-73
2021/08/16 10:55:34;;;;;;;5.50;1.90;;;22.10;61.90;;;;;;5043693;28;20036;-74
2021/08/16 10:58:00;;;;;;;7.72;1.88;;;22.00;61.70;;;;;;5047974;28;20480;-75
2021/08/16 11:00:26;;;;;;;5.28;1.75;;;22.00;61.40;;;;;;5045783;28;20029;-73
2021/08/16 11:02:56;;;;;;;5.20;1.90;;;22.00;61.60;;;;;;5027513;28;20029;-73
2021/08/16 11:05:35;;;;;;;5.25;1.90;;;22.00;61.50;;;;;;5047227;28;20103;-74
2021/08/16 11:08:03;;;;;;;7.43;1.77;;;22.00;61.40;;;;;;5040968;28;20032;-74
2021/08/16 11:10:47;;;;;;;11.27;2.38;;;22.00;61.40;;;;;;5043647;28;20103;-72
2021/08/16 11:13:16;;;;;;;5.78;2.05;;;22.00;61.00;;;;;;5032386;28;20024;-70
2021/08/16 11:15:41;;;;;;;6.50;1.70;;;22.00;61.20;;;;;;5053905;28;20047;-71
2021/08/16 11:18:18;;;;;;;6.90;2.17;;;22.00;61.20;;;;;;5042325;28;20129;-73
2021/08/16 11:20:45;;;;;;;4.25;1.52;;;22.10;61.20;;;;;;5055260;28;20062;-71
2021/08/16 11:23:12;;;;;;;5.43;1.83;;;22.00;61.10;;;;;;5031447;28;20024;-70
2021/08/16 11:25:49;;;;;;;5.20;1.90;;;22.10;61.10;;;;;;5060051;28;20093;-67
2021/08/16 11:28:19;;;;;;;6.43;1.58;;;22.10;61.00;;;;;;5054436;28;20036;-69
2021/08/16 11:30:45;;;;;;;5.40;1.73;;;22.10;61.00;;;;;;5043867;28;20072;-70
2021/08/16 11:33:10;;;;;;;7.38;1.88;;;22.10;61.10;;;;;;5028301;28;20061;-69
2021/08/16 11:35:36;;;;;;;7.30;1.83;;;22.10;60.80;;;;;;5051650;28;20514;-71
2021/08/16 11:38:01;;;;;;;6.18;1.88;;;22.00;61.10;;;;;;5049919;28;20025;-70
2021/08/16 11:40:27;;;;;;;10.32;2.15;;;22.10;61.10;;;;;;5055294;28;20033;-71
2021/08/16 11:42:53;;;;;;;6.95;1.83;;;22.00;61.00;;;;;;5031586;28;20152;-70
2021/08/16 11:45:19;;;;;;;5.88;1.70;;;22.10;60.90;;;;;;5044960;28;20025;-70
2021/08/16 11:47:50;;;;;;;6.10;1.92;;;22.10;60.90;;;;;;5034064;28;20026;-69
2021/08/16 11:50:19;;;;;;;4.20;1.60;;;22.10;60.90;;;;;;5049407;28;20044;-70
2021/08/16 11:52:44;;;;;;;6.68;1.83;;;22.10;61.00;;;;;;5031989;28;20021;-70
2021/08/16 11:55:11;;;;;;;5.35;1.77;;;22.10;61.10;;;;;;5062615;28;20582;-71
2021/08/16 11:57:38;;;;;;;4.18;1.48;;;22.10;61.00;;;;;;5047486;28;20079;-73
2021/08/16 12:00:06;;;;;;;5.20;1.67;;;22.10;61.00;;;;;;5044001;28;20113;-71
2021/08/16 12:02:36;;;;;;;5.57;1.50;;;22.00;61.20;;;;;;5020216;28;20036;-74
2021/08/16 12:05:01;;;;;;;6.30;2.10;;;22.00;61.20;;;;;;5038035;28;20025;-74
2021/08/16 12:07:29;;;;;;;5.57;1.50;;;22.00;61.40;;;;;;5046371;28;20043;-71
2021/08/16 12:09:56;;;;;;;6.15;1.85;;;22.00;61.40;;;;;;5048460;28;20578;-70
2021/08/16 12:12:24;;;;;;;7.28;2.88;;;22.10;61.10;;;;;;5038761;28;20407;-68
2021/08/16 12:15:09;;;;;;;5.35;1.83;;;22.00;61.20;;;;;;5049499;28;20033;-72
2021/08/16 12:17:35;;;;;;;5.15;1.85;;;22.00;61.20;;;;;;5043377;28;20037;-72
2021/08/16 12:20:07;;;;;;;6.65;1.70;;;22.00;61.10;;;;;;5052552;28;20611;-72
2021/08/16 12:22:44;;;;;;;7.00;2.00;;;22.10;60.90;;;;;;5026350;28;20059;-74
2021/08/16 12:25:10;;;;;;;5.22;2.38;;;22.00;61.00;;;;;;5049427;28;20021;-73
2021/08/16 12:27:36;;;;;;;8.23;2.40;;;22.00;61.00;;;;;;5048258;28;20685;-74
2021/08/16 12:30:13;;;;;;;6.15;2.05;;;22.10;60.90;;;;;;5051512;28;21651;-73
2021/08/16 12:32:38;;;;;;;8.95;2.10;;;22.10;60.80;;;;;;5025760;28;20040;-71
2021/08/16 12:35:20;;;;;;;6.50;2.35;;;22.00;60.90;;;;;;5039397;28;20052;-71
2021/08/16 12:37:49;;;;;;;6.40;2.25;;;22.00;61.00;;;;;;5046531;28;20072;-70
2021/08/16 12:40:17;;;;;;;6.20;2.22;;;22.10;60.90;;;;;;5041940;28;20374;-71
2021/08/16 12:42:54;;;;;;;5.25;1.90;;;22.10;60.80;;;;;;5036564;28;20100;-71
2021/08/16 12:45:20;;;;;;;6.53;1.83;;;22.10;60.80;;;;;;5036014;28;20120;-72